Time;durP1;ratioP1;P1;durP2;ratioP2;P2;SDS_P1;SDS_P2;PMS_P1;PMS_P2;Temp;Humidity;BMP_temperature;BMP_pressure;BME280_temperature;BME280_humidity;BME280_pressure;Samples;Min_cycle;Max_cycle;Signal;HPM_P1;HPM_P2
2021/03/22 00:01:12;;;;;;;20.97;10.63;;;3.80;99.90;;;;;;5080468;28;20662;-75
2021/03/22 00:03:38;;;;;;;20.77;8.90;;;3.90;99.90;;;;;;5083110;28;20194;-76
2021/03/22 00:06:04;;;;;;;32.13;9.70;;;3.80;99.90;;;;;;5082116;28;20781;-76
2021/03/22 00:08:29;;;;;;;24.60;8.47;;;3.80;99.90;;;;;;5084376;28;20844;-74
2021/03/22 00:10:55;;;;;;;29.00;9.93;;;3.80;99.90;;;;;;5081192;28;20924;-76
2021/03/22 00:13:24;;;;;;;22.20;8.83;;;3.90;99.90;;;;;;5081438;28;20556;-76
2021/03/22 00:15:50;;;;;;;27.40;7.50;;;3.90;99.90;;;;;;5084053;28;20278;-75
2021/03/22 00:18:21;;;;;;;21.27;9.00;;;3.90;99.90;;;;;;5082655;28;20402;-76
2021/03/22 00:20:47;;;;;;;23.53;8.23;;;3.90;99.90;;;;;;5082907;28;20853;-75
2021/03/22 00:23:13;;;;;;;29.90;8.30;;;3.90;99.90;;;;;;5081675;28;20421;-75
2021/03/22 00:25:39;;;;;;;18.70;8.50;;;3.90;99.90;;;;;;5082487;28;20435;-75
2021/03/22 00:28:05;;;;;;;25.43;8.53;;;3.90;99.90;;;;;;5083374;28;20212;-75
2021/03/22 00:30:34;;;;;;;21.60;8.67;;;4.00;99.90;;;;;;5080910;28;20211;-75
2021/03/22 00:33:00;;;;;;;23.10;8.50;;;4.10;99.90;;;;;;5082441;28;20811;-76
2021/03/22 00:35:25;;;;;;;21.30;8.97;;;4.10;99.90;;;;;;5080638;28;20440;-76
2021/03/22 00:37:51;;;;;;;25.00;9.60;;;4.10;99.90;;;;;;5083601;28;20494;-73
2021/03/22 00:40:20;;;;;;;29.57;9.30;;;4.10;99.90;;;;;;5081218;28;20185;-73
2021/03/22 00:42:45;;;;;;;23.20;6.97;;;4.10;99.90;;;;;;5082688;28;20467;-75
2021/03/22 00:45:13;;;;;;;24.90;9.00;;;4.10;99.90;;;;;;5081975;28;20401;-75
2021/03/22 00:47:38;;;;;;;29.50;9.13;;;4.10;99.90;;;;;;5081532;28;20623;-75
2021/03/22 00:50:06;;;;;;;17.70;7.37;;;4.10;99.90;;;;;;5082748;28;20411;-75
2021/03/22 00:52:32;;;;;;;20.90;8.13;;;4.10;99.90;;;;;;5080716;28;20226;-75
2021/03/22 00:54:57;;;;;;;35.27;8.63;;;4.10;99.90;;;;;;5083475;28;20786;-74
2021/03/22 00:57:23;;;;;;;18.40;8.23;;;4.10;99.90;;;;;;5080329;28;20173;-75
2021/03/22 00:59:48;;;;;;;23.90;7.63;;;4.10;99.90;;;;;;5081523;28;20172;-74
2021/03/22 01:02:14;;;;;;;32.30;7.07;;;4.10;99.90;;;;;;5080969;28;20199;-75
2021/03/22 01:04:39;;;;;;;20.53;7.97;;;4.20;99.90;;;;;;5081556;28;20238;-75
2021/03/22 01:07:05;;;;;;;25.90;7.53;;;4.20;99.90;;;;;;5082432;28;20698;-71
2021/03/22 01:09:31;;;;;;;26.47;8.87;;;4.20;99.90;;;;;;5079006;28;20293;-75
2021/03/22 01:11:57;;;;;;;32.47;8.27;;;4.20;99.90;;;;;;5083023;28;20236;-74
2021/03/22 01:14:23;;;;;;;22.43;8.03;;;4.20;99.90;;;;;;5080055;28;20446;-75
2021/03/22 01:16:49;;;;;;;22.00;6.20;;;4.20;99.90;;;;;;5081720;28;20395;-75
2021/03/22 01:19:19;;;;;;;22.20;8.00;;;4.20;99.90;;;;;;5080886;28;20986;-75
2021/03/22 01:21:50;;;;;;;22.80;6.60;;;4.20;99.90;;;;;;5081699;28;20205;-74
2021/03/22 01:24:20;;;;;;;16.93;6.20;;;4.20;99.90;;;;;;5080463;28;20462;-75
2021/03/22 01:26:47;;;;;;;23.47;7.07;;;4.20;99.90;;;;;;5081839;28;20423;-74
2021/03/22 01:29:16;;;;;;;18.87;6.23;;;4.20;99.90;;;;;;5080762;28;20439;-74
2021/03/22 01:31:43;;;;;;;17.63;6.67;;;4.20;99.90;;;;;;5081265;28;20438;-75
2021/03/22 01:34:08;;;;;;;22.80;7.37;;;4.20;99.90;;;;;;5081178;28;20414;-74
2021/03/22 01:36:34;;;;;;;19.33;8.20;;;4.10;99.90;;;;;;5080377;28;20411;-74
2021/03/22 01:39:15;;;;;;;31.77;7.20;;;4.10;99.90;;;;;;5082491;28;20177;-74
2021/03/22 01:42:05;;;;;;;28.00;5.87;;;4.10;99.90;;;;;;5080910;28;20444;-74
2021/03/22 01:44:33;;;;;;;20.13;8.67;;;4.20;99.90;;;;;;5082438;28;20506;-75
2021/03/22 01:47:09;;;;;;;20.87;6.50;;;4.10;99.90;;;;;;5079271;28;21007;-75
2021/03/22 01:49:44;;;;;;;18.97;6.20;;;4.10;99.90;;;;;;5081757;28;20846;-75
2021/03/22 01:52:11;;;;;;;22.43;5.87;;;4.10;99.90;;;;;;5078961;28;20519;-75
2021/03/22 01:54:38;;;;;;;24.63;6.70;;;4.10;99.90;;;;;;5080440;28;20419;-74
2021/03/22 01:57:24;;;;;;;18.93;5.73;;;4.10;99.90;;;;;;5081758;28;20394;-74
2021/03/22 01:59:52;;;;;;;29.13;7.07;;;4.10;99.90;;;;;;5082133;28;20396;-75
2021/03/22 02:02:19;;;;;;;28.67;8.10;;;4.10;99.90;;;;;;5079597;28;22198;-75
2021/03/22 02:04:45;;;;;;;23.30;6.60;;;4.00;99.90;;;;;;5081386;28;20518;-75
2021/03/22 02:07:10;;;;;;;21.00;6.50;;;4.00;99.90;;;;;;5080855;28;20504;-75
2021/03/22 02:09:36;;;;;;;21.63;6.87;;;4.00;99.90;;;;;;5080030;28;20215;-74
2021/03/22 02:12:04;;;;;;;28.63;7.00;;;4.00;99.90;;;;;;5081684;28;20266;-74
2021/03/22 02:14:30;;;;;;;29.00;7.50;;;4.00;99.90;;;;;;5079212;28;20662;-74
2021/03/22 02:17:04;;;;;;;23.10;6.87;;;3.90;99.90;;;;;;5081084;28;20505;-74
2021/03/22 02:20:18;;;;;;;33.70;7.50;;;3.90;99.90;;;;;;5079008;28;20193;-74
2021/03/22 02:23:20;;;;;;;25.73;8.50;;;4.00;99.90;;;;;;5080882;28;20393;-75
2021/03/22 02:26:05;;;;;;;28.77;7.03;;;4.00;99.90;;;;;;5081345;28;20451;-75
2021/03/22 02:29:09;;;;;;;25.03;5.63;;;3.90;99.90;;;;;;5079129;28;20849;-75
2021/03/22 02:32:02;;;;;;;25.67;6.63;;;3.90;99.90;;;;;;5054348;28;20466;-74
2021/03/22 02:34:48;;;;;;;29.00;6.03;;;3.90;99.90;;;;;;5081680;28;20447;-75
2021/03/22 02:37:39;;;;;;;17.03;5.40;;;3.90;99.90;;;;;;5081069;28;20397;-74
2021/03/22 02:40:14;;;;;;;21.13;4.60;;;3.90;99.90;;;;;;5079699;28;20410;-75
2021/03/22 02:42:44;;;;;;;24.13;5.53;;;3.90;99.90;;;;;;5080354;28;20431;-74
2021/03/22 02:45:16;;;;;;;30.27;6.53;;;3.80;99.90;;;;;;5082227;28;20834;-74
2021/03/22 02:47:42;;;;;;;19.57;5.93;;;3.80;99.90;;;;;;5084071;28;20413;-74
2021/03/22 02:50:13;;;;;;;15.33;4.90;;;3.80;99.90;;;;;;5083904;28;20423;-72
2021/03/22 02:53:09;;;;;;;25.33;6.23;;;3.80;99.90;;;;;;5084402;28;20185;-74
2021/03/22 02:55:46;;;;;;;25.00;5.70;;;3.80;99.90;;;;;;5083266;28;20418;-75
2021/03/22 02:58:14;;;;;;;29.63;5.33;;;3.70;99.90;;;;;;5083954;28;20792;-75
2021/03/22 03:00:47;;;;;;;19.37;5.87;;;3.80;99.90;;;;;;5083736;28;20542;-75
2021/03/22 03:03:16;;;;;;;22.57;4.90;;;3.80;99.90;;;;;;5083875;28;20486;-74
2021/03/22 03:05:49;;;;;;;27.67;5.27;;;3.80;99.90;;;;;;5082665;28;20428;-74
2021/03/22 03:08:17;;;;;;;30.37;4.83;;;3.80;99.90;;;;;;5083433;28;20460;-74
2021/03/22 03:10:43;;;;;;;21.47;5.40;;;3.80;99.90;;;;;;5083866;28;20466;-74
2021/03/22 03:13:09;;;;;;;26.30;4.80;;;3.80;99.90;;;;;;5084131;28;20418;-74
2021/03/22 03:15:34;;;;;;;21.80;5.00;;;3.80;99.90;;;;;;5082888;28;20177;-74
2021/03/22 03:18:00;;;;;;;40.73;4.50;;;3.70;99.90;;;;;;5085317;28;20188;-75
2021/03/22 03:20:28;;;;;;;24.50;5.87;;;3.80;99.90;;;;;;5081964;28;20264;-75
2021/03/22 03:22:55;;;;;;;16.80;4.37;;;3.80;99.90;;;;;;5081625;28;20255;-75
2021/03/22 03:25:22;;;;;;;22.10;5.07;;;3.80;99.90;;;;;;5084172;28;20450;-75
2021/03/22 03:27:47;;;;;;;15.60;4.30;;;3.80;99.90;;;;;;5086374;28;21006;-75
2021/03/22 03:30:18;;;;;;;18.50;4.50;;;3.80;99.90;;;;;;5083153;28;20454;-75
2021/03/22 03:32:44;;;;;;;22.97;5.03;;;3.80;99.90;;;;;;5085137;28;20195;-75
2021/03/22 03:35:12;;;;;;;15.37;4.30;;;3.70;99.90;;;;;;5083534;28;20427;-74
2021/03/22 03:37:38;;;;;;;28.57;5.50;;;3.70;99.90;;;;;;5081052;28;20215;-75
2021/03/22 03:40:27;;;;;;;13.83;4.83;;;3.70;99.90;;;;;;5084687;28;20468;-74
2021/03/22 03:42:52;;;;;;;30.93;6.20;;;3.70;99.90;;;;;;5081129;28;20483;-75
2021/03/22 03:45:19;;;;;;;20.03;5.20;;;3.70;99.90;;;;;;5081856;28;20415;-74
2021/03/22 03:47:45;;;;;;;23.63;6.03;;;3.70;99.90;;;;;;5081897;28;20276;-74
2021/03/22 03:50:24;;;;;;;16.67;4.77;;;3.80;99.90;;;;;;5083218;28;20476;-74
2021/03/22 03:52:50;;;;;;;24.93;5.53;;;3.80;99.90;;;;;;5084783;28;20442;-75
2021/03/22 03:55:17;;;;;;;28.40;4.73;;;3.70;99.90;;;;;;5082911;28;20534;-74
2021/03/22 03:57:47;;;;;;;16.60;4.60;;;3.80;99.90;;;;;;5083167;28;20211;-75
2021/03/22 04:00:23;;;;;;;29.27;5.27;;;3.70;99.90;;;;;;5081217;28;20411;-75
2021/03/22 04:02:49;;;;;;;15.63;4.13;;;3.80;99.90;;;;;;5082667;28;20415;-75
2021/03/22 04:05:15;;;;;;;30.73;5.37;;;3.70;99.90;;;;;;5083206;28;20967;-75
2021/03/22 04:07:40;;;;;;;28.23;5.00;;;3.70;99.90;;;;;;5081383;28;20217;-73
2021/03/22 04:10:06;;;;;;;22.90;5.57;;;3.70;99.90;;;;;;5083058;28;20838;-75
2021/03/22 04:12:32;;;;;;;18.23;5.80;;;3.60;99.90;;;;;;5081325;28;20234;-76
2021/03/22 04:14:58;;;;;;;17.73;4.83;;;3.60;99.90;;;;;;5078749;28;20467;-75
2021/03/22 04:17:23;;;;;;;19.83;5.40;;;3.70;99.90;;;;;;5084576;28;20422;-74
2021/03/22 04:19:49;;;;;;;27.00;5.30;;;3.70;99.90;;;;;;5081948;28;20201;-75
2021/03/22 04:22:14;;;;;;;25.67;4.67;;;3.70;99.90;;;;;;5082870;28;20211;-75
2021/03/22 04:24:40;;;;;;;23.83;4.90;;;3.60;99.90;;;;;;5082911;28;20203;-75
2021/03/22 04:27:06;;;;;;;22.60;5.40;;;3.70;99.90;;;;;;5082833;28;20267;-75
2021/03/22 04:29:32;;;;;;;19.87;4.70;;;3.70;99.90;;;;;;5080685;28;20358;-75
2021/03/22 04:31:57;;;;;;;21.77;4.13;;;3.70;99.90;;;;;;5080524;28;20497;-74
2021/03/22 04:34:23;;;;;;;28.60;5.17;;;3.70;99.90;;;;;;5081366;28;20181;-74
2021/03/22 04:36:48;;;;;;;26.97;4.53;;;3.70;99.90;;;;;;5084123;28;20189;-74
2021/03/22 04:39:14;;;;;;;19.77;3.83;;;3.70;99.90;;;;;;5081442;28;20176;-74
2021/03/22 04:41:39;;;;;;;24.50;4.60;;;3.70;99.90;;;;;;5079690;28;20697;-75
2021/03/22 04:44:06;;;;;;;18.90;5.33;;;3.70;99.90;;;;;;5078231;28;20183;-75
2021/03/22 04:46:32;;;;;;;24.27;4.93;;;3.70;99.90;;;;;;5080066;28;20204;-75
2021/03/22 04:48:59;;;;;;;22.37;5.37;;;3.60;99.90;;;;;;5083790;28;20461;-75
2021/03/22 04:51:25;;;;;;;22.13;4.67;;;3.60;99.90;;;;;;5080145;28;20468;-74
2021/03/22 04:53:50;;;;;;;20.70;5.67;;;3.60;99.90;;;;;;5082965;28;20422;-74
2021/03/22 04:56:16;;;;;;;27.13;5.33;;;3.60;99.90;;;;;;5081481;28;20172;-75
2021/03/22 04:58:41;;;;;;;32.40;6.10;;;3.60;99.90;;;;;;5077536;28;20183;-74
2021/03/22 05:01:08;;;;;;;23.10;5.73;;;3.60;99.90;;;;;;5079190;28;20200;-75
2021/03/22 05:03:35;;;;;;;27.27;5.90;;;3.70;99.90;;;;;;5082666;28;20181;-75
2021/03/22 05:06:01;;;;;;;18.87;8.37;;;3.70;99.90;;;;;;5079760;28;20519;-75
2021/03/22 05:08:27;;;;;;;22.67;6.67;;;3.70;99.90;;;;;;5082064;28;20463;-75
2021/03/22 05:10:54;;;;;;;25.57;6.43;;;3.60;99.90;;;;;;5081621;28;20431;-75
2021/03/22 05:13:22;;;;;;;25.87;7.00;;;3.60;99.90;;;;;;5081235;28;20641;-74
2021/03/22 05:15:49;;;;;;;23.13;4.67;;;3.60;99.90;;;;;;5082490;28;20563;-74
2021/03/22 05:18:15;;;;;;;13.57;4.73;;;3.70;99.90;;;;;;5081574;28;20506;-72
2021/03/22 05:20:44;;;;;;;24.43;7.83;;;3.70;99.90;;;;;;5081065;28;20559;-71
2021/03/22 05:23:16;;;;;;;15.77;4.07;;;3.80;99.90;;;;;;5080897;28;20189;-72
2021/03/22 05:25:41;;;;;;;26.20;9.67;;;3.70;99.90;;;;;;5081193;28;20445;-72
2021/03/22 05:28:09;;;;;;;33.37;7.87;;;3.80;99.90;;;;;;5079901;28;20922;-72
2021/03/22 05:30:36;;;;;;;18.50;5.03;;;3.80;99.90;;;;;;5079929;28;20212;-72
2021/03/22 05:33:05;;;;;;;34.40;9.60;;;3.90;99.90;;;;;;5081336;28;20430;-72
2021/03/22 05:35:31;;;;;;;23.23;8.70;;;3.80;99.90;;;;;;5079663;28;20395;-72
2021/03/22 05:37:57;;;;;;;31.30;5.83;;;3.80;99.90;;;;;;5081695;28;20443;-71
2021/03/22 05:40:26;;;;;;;22.70;6.43;;;3.80;99.90;;;;;;5079484;28;20198;-72
2021/03/22 05:43:13;;;;;;;27.03;8.10;;;3.80;99.90;;;;;;5078218;28;20794;-72
2021/03/22 05:46:06;;;;;;;25.83;6.80;;;3.80;99.90;;;;;;5080730;28;20439;-72
2021/03/22 05:48:53;;;;;;;22.73;5.67;;;3.80;99.90;;;;;;5081420;28;21013;-71
2021/03/22 05:51:33;;;;;;;25.30;6.57;;;3.80;99.90;;;;;;5079220;28;20545;-72
2021/03/22 05:54:37;;;;;;;20.70;6.77;;;3.80;99.90;;;;;;5080945;28;20452;-72
2021/03/22 05:57:37;;;;;;;25.33;6.37;;;3.70;99.90;;;;;;5072359;28;20401;-71
2021/03/22 06:00:02;;;;;;;23.77;5.60;;;3.70;99.90;;;;;;5064636;28;20439;-72
2021/03/22 06:02:39;;;;;;;25.17;5.10;;;3.80;99.90;;;;;;5081067;28;20453;-72
2021/03/22 06:05:27;;;;;;;31.10;6.17;;;3.80;99.90;;;;;;5077282;28;20180;-71
2021/03/22 06:07:56;;;;;;;22.67;5.70;;;3.80;99.90;;;;;;5076934;28;20434;-71
2021/03/22 06:10:24;;;;;;;19.07;6.60;;;3.80;99.90;;;;;;5076564;28;20430;-71
2021/03/22 06:12:57;;;;;;;46.00;7.70;;;3.80;99.90;;;;;;5081199;28;20427;-72
2021/03/22 06:15:30;;;;;;;31.47;5.13;;;3.90;99.90;;;;;;5081750;28;20468;-72
2021/03/22 06:18:08;;;;;;;26.90;6.67;;;3.80;99.90;;;;;;5080051;28;20402;-72
2021/03/22 06:20:38;;;;;;;22.60;5.53;;;3.90;99.90;;;;;;5080083;28;20541;-72
2021/03/22 06:23:20;;;;;;;24.53;6.17;;;3.90;99.90;;;;;;5083663;28;20398;-71
2021/03/22 06:25:46;;;;;;;14.33;4.40;;;3.90;99.90;;;;;;5081634;28;20438;-71
2021/03/22 06:28:14;;;;;;;24.40;4.93;;;3.90;99.90;;;;;;5086932;28;20471;-71
2021/03/22 06:30:53;;;;;;;17.30;5.50;;;3.90;99.90;;;;;;5083657;28;20203;-71
2021/03/22 06:33:31;;;;;;;14.10;4.50;;;3.80;99.90;;;;;;5088789;28;20505;-71
2021/03/22 06:35:56;;;;;;;24.97;5.70;;;3.90;99.90;;;;;;5084674;28;20450;-71
2021/03/22 06:38:22;;;;;;;28.37;7.00;;;3.90;99.90;;;;;;5084238;28;20939;-72
2021/03/22 06:40:48;;;;;;;19.37;5.83;;;3.90;99.90;;;;;;5085601;28;20205;-71
2021/03/22 06:43:25;;;;;;;22.00;5.43;;;3.90;99.90;;;;;;5086274;28;20185;-72
2021/03/22 06:46:12;;;;;;;17.53;5.47;;;3.90;99.90;;;;;;5082463;28;20180;-72
2021/03/22 06:48:38;;;;;;;21.27;4.60;;;3.90;99.90;;;;;;5087047;28;20992;-71
2021/03/22 06:51:04;;;;;;;37.37;4.73;;;3.90;99.90;;;;;;5082789;28;20937;-71
2021/03/22 06:53:30;;;;;;;25.30;6.77;;;4.00;99.90;;;;;;5086817;28;20592;-71
2021/03/22 06:56:17;;;;;;;24.23;4.60;;;4.00;99.90;;;;;;5083148;28;20893;-72
2021/03/22 06:58:44;;;;;;;14.43;4.17;;;4.00;99.90;;;;;;5085968;28;20452;-71
2021/03/22 07:01:30;;;;;;;24.17;5.27;;;4.00;99.90;;;;;;5080511;28;20492;-71
2021/03/22 07:04:31;;;;;;;14.43;3.90;;;4.00;99.90;;;;;;5078688;28;20499;-71
2021/03/22 07:07:22;;;;;;;34.23;6.00;;;4.00;99.90;;;;;;5082449;28;20443;-71
2021/03/22 07:10:00;;;;;;;19.67;4.47;;;4.00;99.90;;;;;;5084604;28;20468;-71
2021/03/22 07:12:35;;;;;;;26.37;6.07;;;4.10;99.90;;;;;;5080553;28;20945;-70
2021/03/22 07:15:30;;;;;;;16.23;5.43;;;4.10;99.90;;;;;;5086562;28;20428;-72
2021/03/22 07:18:18;;;;;;;22.70;4.27;;;4.10;99.90;;;;;;5085331;28;20437;-71
2021/03/22 07:20:54;;;;;;;17.27;4.50;;;4.20;99.90;;;;;;5082602;28;20413;-71
2021/03/22 07:23:26;;;;;;;14.70;4.83;;;4.20;99.90;;;;;;5089421;28;20452;-71
2021/03/22 07:25:54;;;;;;;21.67;4.00;;;4.30;99.90;;;;;;5083377;28;20509;-71
2021/03/22 07:28:47;;;;;;;29.03;4.37;;;4.50;99.90;;;;;;5077664;28;20549;-72
2021/03/22 07:31:38;;;;;;;29.87;4.90;;;4.60;99.90;;;;;;5082288;28;20478;-71
2021/03/22 07:34:12;;;;;;;24.53;4.40;;;4.80;99.90;;;;;;5080759;28;20403;-72
2021/03/22 07:36:52;;;;;;;23.80;3.37;;;4.70;99.90;;;;;;5078766;28;20908;-72
2021/03/22 07:39:25;;;;;;;19.80;4.53;;;4.60;99.90;;;;;;5085478;28;20440;-72
2021/03/22 07:42:06;;;;;;;11.70;4.73;;;4.60;99.90;;;;;;5082562;28;20418;-72
2021/03/22 07:44:42;;;;;;;19.23;6.30;;;4.70;99.90;;;;;;5080355;28;20775;-72
2021/03/22 07:47:46;;;;;;;18.73;5.47;;;4.60;99.90;;;;;;5083261;28;20412;-72
2021/03/22 07:50:23;;;;;;;17.70;4.43;;;4.60;99.90;;;;;;5081657;28;20472;-70
2021/03/22 07:53:01;;;;;;;23.40;4.30;;;4.70;99.90;;;;;;5083282;28;20488;-72
2021/03/22 07:55:48;;;;;;;10.03;4.43;;;4.70;99.90;;;;;;5079833;28;20451;-72
2021/03/22 07:58:48;;;;;;;20.20;3.97;;;4.70;99.90;;;;;;5083311;28;20466;-72
2021/03/22 08:01:21;;;;;;;34.17;4.53;;;4.70;99.90;;;;;;5080076;28;20984;-71
2021/03/22 08:04:18;;;;;;;15.47;2.90;;;4.70;99.90;;;;;;5085271;28;20453;-72
2021/03/22 08:07:02;;;;;;;15.73;4.30;;;4.70;99.90;;;;;;5085252;28;20468;-71
2021/03/22 08:10:12;;;;;;;19.10;3.50;;;4.80;99.90;;;;;;5080769;28;20483;-71
2021/03/22 08:13:08;;;;;;;11.37;2.63;;;5.00;99.90;;;;;;5079384;28;20484;-71
2021/03/22 08:15:58;;;;;;;21.40;3.20;;;5.00;99.90;;;;;;5080809;28;20903;-70
2021/03/22 08:19:03;;;;;;;29.33;4.30;;;5.10;99.90;;;;;;5083108;28;20475;-71
2021/03/22 08:21:37;;;;;;;12.43;3.97;;;5.20;99.90;;;;;;5079979;28;20461;-71
2021/03/22 08:24:22;;;;;;;21.77;3.07;;;5.10;99.90;;;;;;5082852;28;21034;-71
2021/03/22 08:27:05;;;;;;;10.77;3.40;;;5.10;99.90;;;;;;5081930;28;20413;-71
2021/03/22 08:29:35;;;;;;;16.20;3.70;;;5.10;99.90;;;;;;5074556;28;20542;-71
2021/03/22 08:32:28;;;;;;;10.90;2.90;;;5.20;99.90;;;;;;5084284;28;20448;-71
2021/03/22 08:34:58;;;;;;;11.37;3.73;;;5.20;99.90;;;;;;5082174;28;20475;-70
2021/03/22 08:37:30;;;;;;;11.17;3.13;;;5.30;99.90;;;;;;5084646;28;20436;-70
2021/03/22 08:40:04;;;;;;;9.57;3.17;;;5.40;99.90;;;;;;5080508;28;20447;-71
2021/03/22 08:42:38;;;;;;;20.57;3.07;;;5.50;99.90;;;;;;5061630;28;20795;-71
2021/03/22 08:45:15;;;;;;;15.00;3.17;;;5.50;99.90;;;;;;5081964;28;20453;-70
2021/03/22 08:47:49;;;;;;;10.23;3.60;;;5.70;99.90;;;;;;5080259;28;20424;-71
2021/03/22 08:50:24;;;;;;;6.73;2.67;;;5.70;99.90;;;;;;5081679;28;20444;-70
2021/03/22 08:52:56;;;;;;;8.07;2.63;;;5.80;99.90;;;;;;5076101;28;20713;-70
2021/03/22 08:55:24;;;;;;;19.10;4.00;;;6.00;99.90;;;;;;5078965;28;20461;-71
2021/03/22 08:57:59;;;;;;;10.63;3.20;;;6.00;99.90;;;;;;5081940;28;21209;-71
2021/03/22 09:00:29;;;;;;;7.63;2.43;;;6.00;99.90;;;;;;5075417;28;20443;-70
2021/03/22 09:02:59;;;;;;;7.53;2.33;;;6.10;99.90;;;;;;5081802;28;20400;-71
2021/03/22 09:05:27;;;;;;;14.20;2.47;;;5.90;99.90;;;;;;5083979;28;20391;-70
2021/03/22 09:08:17;;;;;;;9.20;2.60;;;5.90;99.90;;;;;;5077885;28;20437;-71
2021/03/22 09:10:43;;;;;;;13.37;2.50;;;6.00;99.90;;;;;;5083718;28;20444;-71
2021/03/22 09:13:20;;;;;;;11.73;3.13;;;6.00;99.90;;;;;;5079431;28;20428;-71
2021/03/22 09:16:03;;;;;;;10.83;2.43;;;6.00;99.90;;;;;;5083157;28;20432;-71
2021/03/22 09:18:29;;;;;;;15.10;2.57;;;5.90;99.90;;;;;;5086111;28;20478;-71
2021/03/22 09:20:55;;;;;;;5.27;2.47;;;5.90;99.90;;;;;;5081168;28;20497;-71
2021/03/22 09:23:30;;;;;;;10.93;3.10;;;6.00;99.90;;;;;;5081114;28;20441;-71
2021/03/22 09:26:06;;;;;;;11.53;3.60;;;6.00;99.90;;;;;;5076771;28;20189;-71
2021/03/22 09:29:01;;;;;;;6.27;2.17;;;5.90;99.90;;;;;;5080297;28;20438;-72
2021/03/22 09:31:36;;;;;;;6.43;1.93;;;5.90;99.90;;;;;;5077378;28;21103;-72
2021/03/22 09:34:33;;;;;;;18.70;2.30;;;5.90;99.90;;;;;;5075473;28;20410;-72
2021/03/22 09:36:58;;;;;;;8.70;2.10;;;6.10;99.90;;;;;;5079442;28;20400;-71
2021/03/22 09:39:23;;;;;;;9.20;1.97;;;6.20;99.90;;;;;;5079940;28;20411;-71
2021/03/22 09:41:52;;;;;;;7.17;2.13;;;6.20;99.90;;;;;;5083365;28;20218;-71
2021/03/22 09:44:20;;;;;;;6.63;2.03;;;6.20;99.90;;;;;;5081827;28;20180;-74
2021/03/22 09:47:00;;;;;;;17.03;2.67;;;6.10;99.90;;;;;;5079928;28;20424;-73
2021/03/22 09:49:28;;;;;;;8.33;3.47;;;6.20;99.90;;;;;;5078883;28;20976;-74
2021/03/22 09:52:22;;;;;;;6.90;2.67;;;6.20;99.90;;;;;;5082007;28;20832;-73
2021/03/22 09:54:47;;;;;;;6.30;2.67;;;6.40;99.90;;;;;;5079863;28;20971;-74
2021/03/22 09:57:28;;;;;;;10.50;2.70;;;6.70;99.90;;;;;;5087154;28;20438;-74
2021/03/22 10:00:05;;;;;;;12.07;2.63;;;6.90;99.90;;;;;;5079579;28;20302;-74
2021/03/22 10:02:50;;;;;;;7.83;1.97;;;7.10;99.90;;;;;;5082669;28;20493;-73
2021/03/22 10:05:49;;;;;;;9.20;3.20;;;7.00;99.90;;;;;;5079408;28;20422;-71
2021/03/22 10:08:22;;;;;;;10.03;3.03;;;7.00;99.90;;;;;;5080873;28;20838;-72
2021/03/22 10:11:01;;;;;;;14.33;2.77;;;7.00;99.90;;;;;;5079582;28;20455;-72
2021/03/22 10:13:26;;;;;;;14.03;3.50;;;6.90;99.90;;;;;;5078248;28;20431;-72
2021/03/22 10:16:00;;;;;;;10.57;4.17;;;6.90;99.90;;;;;;5079234;28;20416;-72
2021/03/22 10:18:30;;;;;;;5.77;2.50;;;6.70;99.90;;;;;;5079506;28;20203;-72
2021/03/22 10:21:13;;;;;;;11.43;2.63;;;6.60;99.90;;;;;;5082635;28;20450;-72
2021/03/22 10:24:04;;;;;;;9.90;2.70;;;6.60;99.90;;;;;;5081628;28;20435;-72
2021/03/22 10:26:41;;;;;;;9.93;2.80;;;6.50;99.90;;;;;;5077679;28;20440;-72
2021/03/22 10:29:18;;;;;;;6.03;2.10;;;6.40;99.90;;;;;;5078859;28;20912;-71
2021/03/22 10:31:44;;;;;;;27.33;2.93;;;6.50;99.90;;;;;;5079655;28;20798;-71
2021/03/22 10:34:25;;;;;;;16.53;3.60;;;6.30;99.90;;;;;;5078506;28;20426;-72
2021/03/22 10:36:51;;;;;;;5.40;2.23;;;6.20;99.90;;;;;;5078767;28;20420;-71
2021/03/22 10:39:30;;;;;;;9.03;2.40;;;6.30;99.90;;;;;;5082832;28;20834;-71
2021/03/22 10:41:55;;;;;;;5.30;3.00;;;6.20;99.90;;;;;;5077269;28;20497;-71
2021/03/22 10:44:31;;;;;;;7.30;2.37;;;6.10;99.90;;;;;;5079994;28;20950;-70
2021/03/22 10:47:11;;;;;;;4.67;1.87;;;6.10;99.90;;;;;;5076676;28;20218;-72
2021/03/22 10:49:36;;;;;;;9.50;3.07;;;6.10;99.90;;;;;;5079302;28;20461;-71
2021/03/22 10:52:04;;;;;;;6.60;2.20;;;6.10;99.90;;;;;;5081117;28;20444;-72
2021/03/22 10:54:42;;;;;;;11.37;2.40;;;6.10;99.90;;;;;;5078566;28;20176;-72
2021/03/22 10:57:24;;;;;;;6.43;2.47;;;6.20;99.90;;;;;;5078943;28;20491;-72
2021/03/22 10:59:53;;;;;;;15.23;2.73;;;6.30;99.90;;;;;;5078470;28;20445;-71
2021/03/22 11:02:22;;;;;;;9.33;2.30;;;6.40;99.90;;;;;;5080295;28;20443;-71
2021/03/22 11:04:48;;;;;;;7.30;1.90;;;6.50;99.90;;;;;;5079522;28;20520;-72
2021/03/22 11:07:32;;;;;;;3.90;1.70;;;6.40;99.90;;;;;;5083193;28;20459;-72
2021/03/22 11:10:03;;;;;;;9.93;2.10;;;6.40;99.90;;;;;;5081764;28;20462;-72
2021/03/22 11:12:30;;;;;;;5.47;2.00;;;6.30;99.90;;;;;;5080904;28;20453;-72
2021/03/22 11:15:14;;;;;;;7.70;2.10;;;6.50;99.90;;;;;;5083045;28;20471;-71
2021/03/22 11:17:48;;;;;;;4.00;1.83;;;6.50;99.90;;;;;;5084435;28;20937;-71
2021/03/22 11:20:16;;;;;;;7.67;2.23;;;6.60;99.90;;;;;;5084573;28;20461;-71
2021/03/22 11:22:43;;;;;;;5.93;1.63;;;6.60;99.90;;;;;;5082773;28;20434;-71
2021/03/22 11:25:32;;;;;;;6.40;1.83;;;6.60;99.90;;;;;;5084073;28;20447;-71
2021/03/22 11:28:02;;;;;;;2.93;1.60;;;6.50;99.90;;;;;;5084413;28;20403;-73
2021/03/22 11:30:40;;;;;;;4.23;1.93;;;6.50;99.90;;;;;;5084785;28;20417;-71
2021/03/22 11:33:35;;;;;;;4.40;1.83;;;6.50;99.90;;;;;;5081284;28;20419;-73
2021/03/22 11:36:15;;;;;;;7.10;2.40;;;6.50;99.90;;;;;;5078767;28;20450;-72
2021/03/22 11:38:55;;;;;;;9.10;2.63;;;6.60;99.90;;;;;;5083515;28;20421;-72
2021/03/22 11:41:37;;;;;;;7.03;2.80;;;6.70;99.90;;;;;;5082791;28;20446;-73
2021/03/22 11:44:23;;;;;;;4.00;2.10;;;6.80;99.90;;;;;;5081472;28;20423;-72
2021/03/22 11:46:56;;;;;;;3.93;2.07;;;7.00;99.90;;;;;;5081720;28;20430;-74
2021/03/22 11:49:41;;;;;;;7.00;2.50;;;7.20;99.90;;;;;;5083800;28;20464;-73
2021/03/22 11:52:20;;;;;;;5.43;2.20;;;7.40;99.90;;;;;;5081510;28;20433;-72
2021/03/22 11:54:51;;;;;;;10.23;2.90;;;7.40;99.90;;;;;;5082241;28;20472;-72
2021/03/22 11:57:19;;;;;;;8.07;2.77;;;7.30;99.90;;;;;;5081849;28;20416;-72
2021/03/22 11:59:53;;;;;;;5.30;1.57;;;7.40;99.90;;;;;;5082033;28;20480;-72
2021/03/22 12:02:47;;;;;;;2.50;2.03;;;7.40;99.90;;;;;;5080508;28;20462;-72
2021/03/22 12:05:53;;;;;;;4.73;2.97;;;7.60;99.90;;;;;;5079696;28;20434;-70
2021/03/22 12:08:34;;;;;;;4.10;2.37;;;7.60;99.90;;;;;;5080771;28;20523;-71
2021/03/22 12:11:01;;;;;;;9.20;3.33;;;7.50;99.90;;;;;;5080929;28;20488;-73
2021/03/22 12:13:27;;;;;;;12.40;2.67;;;7.40;99.90;;;;;;5080701;28;20429;-73
2021/03/22 12:15:52;;;;;;;7.57;2.43;;;7.40;99.90;;;;;;5083806;28;21118;-72
2021/03/22 12:18:28;;;;;;;5.63;2.30;;;7.30;99.90;;;;;;5080446;28;20196;-71
2021/03/22 12:20:54;;;;;;;4.43;2.80;;;7.30;99.90;;;;;;5082890;28;20281;-71
2021/03/22 12:23:20;;;;;;;5.77;2.70;;;7.20;99.90;;;;;;5082978;28;21876;-71
2021/03/22 12:25:45;;;;;;;5.57;2.40;;;7.10;99.90;;;;;;5078556;28;20179;-71
2021/03/22 12:28:11;;;;;;;11.40;2.97;;;7.00;99.90;;;;;;5084252;28;20709;-70
2021/03/22 12:30:37;;;;;;;6.20;2.17;;;7.00;99.90;;;;;;5081513;28;20233;-71
2021/03/22 12:33:04;;;;;;;11.77;3.53;;;6.90;99.90;;;;;;5080815;28;20207;-70
2021/03/22 12:35:36;;;;;;;5.50;2.27;;;6.80;99.90;;;;;;5083632;28;20498;-70
2021/03/22 12:38:03;;;;;;;4.10;2.03;;;6.80;99.90;;;;;;5078925;28;20430;-70
2021/03/22 12:40:29;;;;;;;7.77;2.53;;;6.80;99.90;;;;;;5083567;28;20427;-70
2021/03/22 12:42:55;;;;;;;8.73;3.00;;;6.70;99.90;;;;;;5079641;28;20397;-70
2021/03/22 12:45:21;;;;;;;9.53;3.17;;;6.60;99.90;;;;;;5082899;28;20215;-70
2021/03/22 12:47:48;;;;;;;8.57;3.60;;;6.60;99.90;;;;;;5080830;28;20452;-70
2021/03/22 12:50:20;;;;;;;5.37;2.13;;;6.40;99.90;;;;;;5080788;28;20215;-70
2021/03/22 12:52:48;;;;;;;5.10;3.20;;;6.50;99.90;;;;;;5082428;28;20429;-70
2021/03/22 12:55:14;;;;;;;9.80;3.13;;;6.50;99.90;;;;;;5081960;28;20448;-70
2021/03/22 12:57:39;;;;;;;14.80;3.50;;;6.50;99.90;;;;;;5080091;28;20456;-70
2021/03/22 13:00:06;;;;;;;7.70;3.20;;;6.50;99.90;;;;;;5080412;28;20458;-71
2021/03/22 13:02:33;;;;;;;5.73;3.70;;;6.50;99.90;;;;;;5081366;28;20295;-72
2021/03/22 13:04:58;;;;;;;5.73;2.60;;;6.40;99.90;;;;;;5078770;28;20421;-72
2021/03/22 13:07:24;;;;;;;5.37;3.20;;;6.50;99.90;;;;;;5083287;28;21044;-72
2021/03/22 13:09:50;;;;;;;7.60;3.53;;;6.50;99.90;;;;;;5080278;28;20281;-71
2021/03/22 13:12:24;;;;;;;7.37;3.30;;;6.60;99.90;;;;;;5081302;28;20203;-72
2021/03/22 13:14:51;;;;;;;6.60;3.27;;;6.50;99.90;;;;;;5080856;28;20182;-71
2021/03/22 13:17:17;;;;;;;8.47;4.00;;;6.60;99.90;;;;;;5082312;28;20428;-72
2021/03/22 13:19:43;;;;;;;7.13;3.47;;;6.70;99.90;;;;;;5078071;28;20949;-73
2021/03/22 13:22:12;;;;;;;4.17;3.70;;;6.80;99.90;;;;;;5078616;28;20454;-73